BAW7PI ENGM-EGLL
Flight info
| Callsign | BAW7PI |
|---|---|
| Flight time | 1h 53m |
| Altitude | 34000 |
| Route | VIPPA DCT LINVI L39 GOLUM DCT UPGAS DCT TIPAN DCT WECOW DCT BINBO DCT AKOKO N866 BUKUT P7 BARMI |
| Aircraft | A21N/M-SDE2E3FGHIRWXY/LB1 |
Departure
| Time | 2026-05-07 10:19 |
|---|---|
| Airport | Oslo-Gardermoen International Airport (ENGM) |
Arrival
| Time | 2026-05-07 12:12 |
|---|---|
| Airport | London Heathrow Airport (EGLL) |
| Time | Latitude | Longitude | Altitude | Speed | Heading |
|---|---|---|---|---|---|
| 2026-05-07 09:47 | 60.19411 | 11.10555 | 697 ft | 0 kts | 195° |
| 2026-05-07 10:07 | 60.19423 | 11.10562 | 688 ft | 4 kts | 198° |
| 2026-05-07 10:07 | 60.19449 | 11.10581 | 690 ft | 4 kts | 204° |
| 2026-05-07 10:07 | 60.19473 | 11.10605 | 690 ft | 4 kts | 213° |
| 2026-05-07 10:08 | 60.19493 | 11.10639 | 687 ft | 4 kts | 237° |
| 2026-05-07 10:08 | 60.19498 | 11.10678 | 688 ft | 1 kts | 286° |
| 2026-05-07 10:08 | 60.19497 | 11.10687 | 689 ft | 0 kts | 286° |
| 2026-05-07 10:10 | 60.19500 | 11.10665 | 691 ft | 7 kts | 286° |
| 2026-05-07 10:10 | 60.19520 | 11.10560 | 695 ft | 9 kts | 327° |
| 2026-05-07 10:10 | 60.19587 | 11.10549 | 697 ft | 11 kts | 14° |
| 2026-05-07 10:11 | 60.19667 | 11.10593 | 692 ft | 13 kts | 16° |
| 2026-05-07 10:11 | 60.19757 | 11.10648 | 697 ft | 14 kts | 17° |
| 2026-05-07 10:11 | 60.19859 | 11.10681 | 693 ft | 16 kts | 331° |
| 2026-05-07 10:11 | 60.19907 | 11.10475 | 697 ft | 17 kts | 287° |
| 2026-05-07 10:12 | 60.19939 | 11.10232 | 692 ft | 19 kts | 285° |
| 2026-05-07 10:12 | 60.19975 | 11.09972 | 692 ft | 20 kts | 286° |
| 2026-05-07 10:12 | 60.20016 | 11.09695 | 695 ft | 21 kts | 287° |
| 2026-05-07 10:12 | 60.20058 | 11.09406 | 686 ft | 22 kts | 287° |
| 2026-05-07 10:13 | 60.20100 | 11.09105 | 682 ft | 23 kts | 285° |
| 2026-05-07 10:13 | 60.20068 | 11.08830 | 686 ft | 24 kts | 194° |
| 2026-05-07 10:13 | 60.19902 | 11.08740 | 685 ft | 26 kts | 195° |
| 2026-05-07 10:13 | 60.19726 | 11.08642 | 681 ft | 27 kts | 195° |
| 2026-05-07 10:14 | 60.19584 | 11.08562 | 687 ft | 2 kts | 195° |
| 2026-05-07 10:14 | 60.19564 | 11.08551 | 691 ft | 4 kts | 195° |
| 2026-05-07 10:14 | 60.19531 | 11.08532 | 690 ft | 6 kts | 195° |
| 2026-05-07 10:14 | 60.19487 | 11.08507 | 690 ft | 7 kts | 196° |
| 2026-05-07 10:15 | 60.19427 | 11.08472 | 688 ft | 10 kts | 196° |
| 2026-05-07 10:15 | 60.19354 | 11.08430 | 681 ft | 12 kts | 196° |
| 2026-05-07 10:15 | 60.19268 | 11.08379 | 684 ft | 14 kts | 196° |
| 2026-05-07 10:15 | 60.19165 | 11.08320 | 684 ft | 17 kts | 196° |
| 2026-05-07 10:16 | 60.19051 | 11.08254 | 683 ft | 18 kts | 196° |
| 2026-05-07 10:16 | 60.18928 | 11.08182 | 683 ft | 19 kts | 196° |
| 2026-05-07 10:16 | 60.18793 | 11.08104 | 685 ft | 21 kts | 196° |
| 2026-05-07 10:16 | 60.18650 | 11.08022 | 683 ft | 22 kts | 196° |
| 2026-05-07 10:17 | 60.18502 | 11.07937 | 680 ft | 23 kts | 196° |
| 2026-05-07 10:17 | 60.18353 | 11.07819 | 681 ft | 24 kts | 248° |
| 2026-05-07 10:17 | 60.18442 | 11.07565 | 686 ft | 25 kts | 321° |
| 2026-05-07 10:17 | 60.18596 | 11.07424 | 680 ft | 27 kts | 25° |
| 2026-05-07 10:18 | 60.18814 | 11.07543 | 687 ft | 55 kts | 13° |
| 2026-05-07 10:18 | 60.19399 | 11.07889 | 687 ft | 117 kts | 16° |
| 2026-05-07 10:18 | 60.20347 | 11.08442 | 698 ft | 162 kts | 17° |
| 2026-05-07 10:18 | 60.21457 | 11.09065 | 1091 ft | 169 kts | 17° |
| 2026-05-07 10:19 | 60.22620 | 11.09732 | 1789 ft | 178 kts | 16° |
| 2026-05-07 10:19 | 60.23858 | 11.10443 | 2439 ft | 196 kts | 15° |
| 2026-05-07 10:19 | 60.25241 | 11.11201 | 3071 ft | 213 kts | 11° |
| 2026-05-07 10:19 | 60.26797 | 11.11308 | 3533 ft | 236 kts | 353° |
| 2026-05-07 10:20 | 60.28485 | 11.10790 | 4122 ft | 254 kts | 351° |
| 2026-05-07 10:20 | 60.30236 | 11.10065 | 4966 ft | 259 kts | 339° |
| 2026-05-07 10:20 | 60.31771 | 11.08164 | 5821 ft | 262 kts | 315° |
| 2026-05-07 10:20 | 60.32797 | 11.05142 | 6697 ft | 264 kts | 291° |
| 2026-05-07 10:21 | 60.33126 | 11.01565 | 7542 ft | 266 kts | 268° |
| 2026-05-07 10:21 | 60.32676 | 10.97894 | 8433 ft | 270 kts | 245° |
| 2026-05-07 10:21 | 60.31764 | 10.94625 | 9338 ft | 272 kts | 245° |
| 2026-05-07 10:21 | 60.31290 | 10.90945 | 10187 ft | 275 kts | 269° |
| 2026-05-07 10:22 | 60.31509 | 10.86984 | 10615 ft | 295 kts | 278° |
| 2026-05-07 10:22 | 60.31429 | 10.82719 | 10996 ft | 315 kts | 258° |
| 2026-05-07 10:22 | 60.30551 | 10.78628 | 11688 ft | 324 kts | 238° |
| 2026-05-07 10:22 | 60.28953 | 10.75362 | 12528 ft | 332 kts | 219° |
| 2026-05-07 10:23 | 60.26990 | 10.72848 | 13371 ft | 337 kts | 214° |
| 2026-05-07 10:23 | 60.24962 | 10.70420 | 14158 ft | 341 kts | 215° |
| 2026-05-07 10:23 | 60.22921 | 10.67957 | 14891 ft | 344 kts | 216° |
| 2026-05-07 10:23 | 60.20872 | 10.65456 | 15635 ft | 346 kts | 216° |
| 2026-05-07 10:24 | 60.18810 | 10.62911 | 16385 ft | 348 kts | 216° |
| 2026-05-07 10:24 | 60.16693 | 10.60476 | 17110 ft | 355 kts | 209° |
| 2026-05-07 10:24 | 60.14303 | 10.59012 | 17836 ft | 364 kts | 196° |
| 2026-05-07 10:24 | 60.11793 | 10.58128 | 18525 ft | 369 kts | 194° |
| 2026-05-07 10:25 | 60.09251 | 10.57307 | 19114 ft | 371 kts | 194° |
| 2026-05-07 10:25 | 60.06695 | 10.56463 | 19680 ft | 374 kts | 195° |
| 2026-05-07 10:25 | 60.04123 | 10.55586 | 20256 ft | 376 kts | 196° |
| 2026-05-07 10:25 | 60.01541 | 10.54692 | 20800 ft | 379 kts | 196° |
| 2026-05-07 10:26 | 59.98934 | 10.53786 | 21379 ft | 381 kts | 196° |
| 2026-05-07 10:26 | 59.96318 | 10.52873 | 21936 ft | 383 kts | 196° |
| 2026-05-07 10:26 | 59.93678 | 10.51955 | 22491 ft | 387 kts | 197° |
| 2026-05-07 10:26 | 59.91018 | 10.51028 | 23041 ft | 390 kts | 197° |
| 2026-05-07 10:27 | 59.88337 | 10.50102 | 23587 ft | 393 kts | 197° |
| 2026-05-07 10:27 | 59.85637 | 10.49171 | 24041 ft | 396 kts | 197° |
| 2026-05-07 10:27 | 59.82912 | 10.48229 | 24473 ft | 399 kts | 197° |
| 2026-05-07 10:27 | 59.80164 | 10.47284 | 24889 ft | 403 kts | 197° |
| 2026-05-07 10:28 | 59.77392 | 10.46334 | 25296 ft | 406 kts | 197° |
| 2026-05-07 10:28 | 59.74595 | 10.45376 | 25644 ft | 410 kts | 197° |
| 2026-05-07 10:28 | 59.71769 | 10.44408 | 26007 ft | 414 kts | 197° |
| 2026-05-07 10:28 | 59.68918 | 10.43435 | 26403 ft | 417 kts | 197° |
| 2026-05-07 10:29 | 59.66046 | 10.42454 | 26786 ft | 421 kts | 197° |
| 2026-05-07 10:29 | 59.63148 | 10.41468 | 27164 ft | 424 kts | 197° |
| 2026-05-07 10:29 | 59.60264 | 10.40485 | 27526 ft | 427 kts | 197° |
| 2026-05-07 10:30 | 59.54366 | 10.38484 | 28224 ft | 433 kts | 197° |
| 2026-05-07 10:30 | 59.51346 | 10.37466 | 28571 ft | 436 kts | 197° |
| 2026-05-07 10:30 | 59.48385 | 10.36465 | 28899 ft | 439 kts | 197° |
| 2026-05-07 10:30 | 59.45368 | 10.35438 | 29178 ft | 442 kts | 197° |
| 2026-05-07 10:31 | 59.42323 | 10.34416 | 29500 ft | 445 kts | 197° |
| 2026-05-07 10:31 | 59.39214 | 10.33379 | 29837 ft | 448 kts | 197° |
| 2026-05-07 10:31 | 59.36171 | 10.32364 | 30157 ft | 451 kts | 197° |
| 2026-05-07 10:31 | 59.33073 | 10.31331 | 30523 ft | 451 kts | 197° |
| 2026-05-07 10:32 | 59.29944 | 10.30293 | 30962 ft | 449 kts | 197° |
| 2026-05-07 10:32 | 59.26869 | 10.29271 | 31392 ft | 447 kts | 197° |
| 2026-05-07 10:32 | 59.23848 | 10.28269 | 31801 ft | 446 kts | 197° |
| 2026-05-07 10:32 | 59.20799 | 10.27262 | 32213 ft | 444 kts | 197° |
| 2026-05-07 10:33 | 59.17756 | 10.26264 | 32544 ft | 444 kts | 195° |
| 2026-05-07 10:33 | 59.14671 | 10.25628 | 32904 ft | 447 kts | 191° |
| 2026-05-07 10:33 | 59.11576 | 10.25205 | 33285 ft | 446 kts | 191° |
| 2026-05-07 10:33 | 59.08481 | 10.24804 | 33661 ft | 444 kts | 191° |
| 2026-05-07 10:34 | 59.05403 | 10.24404 | 34010 ft | 443 kts | 191° |
| 2026-05-07 10:34 | 59.02325 | 10.23998 | 34146 ft | 443 kts | 191° |
| 2026-05-07 10:34 | 58.96249 | 10.22686 | 34138 ft | 433 kts | 201° |
| 2026-05-07 10:35 | 58.93462 | 10.20729 | 34122 ft | 421 kts | 213° |
| 2026-05-07 10:35 | 58.91021 | 10.17738 | 34086 ft | 412 kts | 224° |
| 2026-05-07 10:35 | 58.86687 | 10.10507 | 34111 ft | 412 kts | 227° |
| 2026-05-07 10:36 | 58.82366 | 10.03239 | 34120 ft | 412 kts | 226° |
| 2026-05-07 10:36 | 58.78002 | 9.96056 | 34121 ft | 412 kts | 226° |
| 2026-05-07 10:37 | 58.73635 | 9.88891 | 34124 ft | 412 kts | 226° |
| 2026-05-07 10:37 | 58.69259 | 9.81755 | 34124 ft | 412 kts | 226° |
| 2026-05-07 10:38 | 58.64872 | 9.74641 | 34090 ft | 413 kts | 226° |
| 2026-05-07 10:38 | 58.60474 | 9.67484 | 34122 ft | 415 kts | 225° |
| 2026-05-07 10:39 | 58.56058 | 9.60340 | 34127 ft | 416 kts | 225° |
| 2026-05-07 10:39 | 58.51664 | 9.53264 | 34121 ft | 416 kts | 225° |
| 2026-05-07 10:40 | 58.47202 | 9.46109 | 34134 ft | 416 kts | 225° |
| 2026-05-07 10:40 | 58.42771 | 9.39023 | 34137 ft | 416 kts | 225° |
| 2026-05-07 10:41 | 58.38331 | 9.31943 | 34127 ft | 416 kts | 225° |
| 2026-05-07 10:41 | 58.33885 | 9.24881 | 34126 ft | 416 kts | 225° |
| 2026-05-07 10:42 | 58.29457 | 9.17893 | 34123 ft | 416 kts | 225° |
| 2026-05-07 10:42 | 58.25002 | 9.10868 | 34132 ft | 416 kts | 225° |
| 2026-05-07 10:43 | 58.21275 | 9.04981 | 34126 ft | 416 kts | 225° |
| 2026-05-07 10:43 | 58.16089 | 8.96849 | 34086 ft | 416 kts | 225° |
| 2026-05-07 10:44 | 58.12327 | 8.90994 | 34117 ft | 418 kts | 225° |
| 2026-05-07 10:44 | 58.07837 | 8.83985 | 34127 ft | 419 kts | 225° |
| 2026-05-07 10:45 | 58.03336 | 8.76986 | 34128 ft | 419 kts | 225° |
| 2026-05-07 10:45 | 57.98815 | 8.70032 | 34127 ft | 419 kts | 224° |
| 2026-05-07 10:46 | 57.94302 | 8.63085 | 34120 ft | 419 kts | 225° |
| 2026-05-07 10:46 | 57.89782 | 8.56148 | 34100 ft | 420 kts | 224° |
| 2026-05-07 10:47 | 57.85242 | 8.49213 | 34120 ft | 421 kts | 224° |
| 2026-05-07 10:47 | 57.80695 | 8.42280 | 34123 ft | 421 kts | 224° |
| 2026-05-07 10:48 | 57.76161 | 8.35340 | 34123 ft | 421 kts | 225° |
| 2026-05-07 10:48 | 57.71607 | 8.28435 | 34120 ft | 421 kts | 224° |
| 2026-05-07 10:49 | 57.67042 | 8.21579 | 34124 ft | 421 kts | 224° |
| 2026-05-07 10:49 | 57.62487 | 8.14676 | 34116 ft | 422 kts | 224° |
| 2026-05-07 10:50 | 57.57915 | 8.07772 | 34120 ft | 423 kts | 224° |
| 2026-05-07 10:50 | 57.53365 | 8.00954 | 34121 ft | 423 kts | 224° |
| 2026-05-07 10:51 | 57.48770 | 7.94117 | 34118 ft | 423 kts | 224° |
| 2026-05-07 10:51 | 57.44172 | 7.87275 | 34122 ft | 423 kts | 224° |
| 2026-05-07 10:52 | 57.39576 | 7.80461 | 34101 ft | 424 kts | 223° |
| 2026-05-07 10:52 | 57.34943 | 7.73643 | 34117 ft | 425 kts | 223° |
| 2026-05-07 10:53 | 57.30311 | 7.66830 | 34120 ft | 425 kts | 223° |
| 2026-05-07 10:53 | 57.25679 | 7.60027 | 34120 ft | 425 kts | 223° |
| 2026-05-07 10:54 | 57.21045 | 7.53239 | 34121 ft | 425 kts | 223° |
| 2026-05-07 10:54 | 57.16398 | 7.46468 | 34121 ft | 425 kts | 223° |
| 2026-05-07 10:55 | 57.11741 | 7.39707 | 34112 ft | 428 kts | 222° |
| 2026-05-07 10:55 | 57.07059 | 7.32931 | 34121 ft | 428 kts | 222° |
| 2026-05-07 10:56 | 57.02373 | 7.26171 | 34126 ft | 428 kts | 222° |
| 2026-05-07 10:56 | 56.97611 | 7.19573 | 34128 ft | 430 kts | 220° |
| 2026-05-07 10:57 | 56.92751 | 7.13200 | 34124 ft | 430 kts | 220° |
| 2026-05-07 10:57 | 56.87884 | 7.06827 | 34116 ft | 431 kts | 219° |
| 2026-05-07 10:58 | 56.83006 | 7.00459 | 34123 ft | 430 kts | 219° |
| 2026-05-07 10:58 | 56.78140 | 6.94122 | 34122 ft | 429 kts | 219° |
| 2026-05-07 10:59 | 56.73272 | 6.87809 | 34124 ft | 429 kts | 219° |
| 2026-05-07 10:59 | 56.68401 | 6.81515 | 34124 ft | 429 kts | 219° |
| 2026-05-07 11:00 | 56.63522 | 6.75237 | 34109 ft | 431 kts | 219° |
| 2026-05-07 11:00 | 56.58612 | 6.68924 | 34136 ft | 433 kts | 218° |
| 2026-05-07 11:01 | 56.53697 | 6.62613 | 34124 ft | 433 kts | 218° |
| 2026-05-07 11:01 | 56.48806 | 6.56361 | 34123 ft | 433 kts | 218° |
| 2026-05-07 11:02 | 56.43881 | 6.50089 | 34130 ft | 433 kts | 218° |
| 2026-05-07 11:02 | 56.38916 | 6.43796 | 34119 ft | 434 kts | 218° |
| 2026-05-07 11:03 | 56.33992 | 6.37561 | 34114 ft | 436 kts | 218° |
| 2026-05-07 11:03 | 56.29023 | 6.31300 | 34116 ft | 436 kts | 218° |
| 2026-05-07 11:04 | 56.24060 | 6.25063 | 34127 ft | 435 kts | 218° |
| 2026-05-07 11:04 | 56.19097 | 6.18851 | 34130 ft | 435 kts | 217° |
| 2026-05-07 11:05 | 56.14135 | 6.12655 | 34102 ft | 435 kts | 217° |
| 2026-05-07 11:05 | 56.09161 | 6.06463 | 34128 ft | 436 kts | 217° |
| 2026-05-07 11:06 | 56.04176 | 6.00276 | 34125 ft | 436 kts | 217° |
| 2026-05-07 11:06 | 55.99188 | 5.94105 | 34126 ft | 436 kts | 217° |
| 2026-05-07 11:07 | 55.94192 | 5.87960 | 34130 ft | 436 kts | 216° |
| 2026-05-07 11:07 | 55.89199 | 5.81823 | 34130 ft | 436 kts | 216° |
| 2026-05-07 11:08 | 55.84201 | 5.75695 | 34134 ft | 436 kts | 216° |
| 2026-05-07 11:08 | 55.79194 | 5.69601 | 34133 ft | 436 kts | 216° |
| 2026-05-07 11:09 | 55.74194 | 5.63500 | 34126 ft | 436 kts | 216° |
| 2026-05-07 11:09 | 55.69188 | 5.57427 | 34130 ft | 435 kts | 216° |
| 2026-05-07 11:10 | 55.64202 | 5.51404 | 34129 ft | 436 kts | 216° |
| 2026-05-07 11:10 | 55.59180 | 5.45344 | 34133 ft | 438 kts | 216° |
| 2026-05-07 11:11 | 55.54139 | 5.39304 | 34132 ft | 438 kts | 215° |
| 2026-05-07 11:11 | 55.48960 | 5.33678 | 34131 ft | 438 kts | 210° |
| 2026-05-07 11:12 | 55.43628 | 5.28463 | 34126 ft | 438 kts | 210° |
| 2026-05-07 11:12 | 55.38316 | 5.23208 | 34126 ft | 439 kts | 210° |
| 2026-05-07 11:13 | 55.32994 | 5.17938 | 34131 ft | 439 kts | 210° |
| 2026-05-07 11:13 | 55.27672 | 5.12671 | 34132 ft | 439 kts | 210° |
| 2026-05-07 11:14 | 55.22347 | 5.07421 | 34132 ft | 439 kts | 210° |
| 2026-05-07 11:14 | 55.17019 | 5.02182 | 34133 ft | 439 kts | 210° |
| 2026-05-07 11:15 | 55.11684 | 4.96952 | 34128 ft | 440 kts | 210° |
| 2026-05-07 11:15 | 55.06333 | 4.91731 | 34129 ft | 441 kts | 210° |
| 2026-05-07 11:16 | 55.00980 | 4.86514 | 34133 ft | 441 kts | 210° |
| 2026-05-07 11:16 | 54.95626 | 4.81318 | 34126 ft | 441 kts | 210° |
| 2026-05-07 11:17 | 54.90272 | 4.76142 | 34118 ft | 441 kts | 209° |
| 2026-05-07 11:17 | 54.84893 | 4.70955 | 34119 ft | 442 kts | 209° |
| 2026-05-07 11:18 | 54.79510 | 4.65780 | 34118 ft | 442 kts | 209° |
| 2026-05-07 11:18 | 54.74130 | 4.60622 | 34117 ft | 442 kts | 209° |
| 2026-05-07 11:19 | 54.68738 | 4.55472 | 34121 ft | 442 kts | 209° |
| 2026-05-07 11:19 | 54.63347 | 4.50340 | 34118 ft | 443 kts | 208° |
| 2026-05-07 11:20 | 54.57938 | 4.45203 | 34122 ft | 444 kts | 208° |
| 2026-05-07 11:20 | 54.52523 | 4.40079 | 34123 ft | 444 kts | 208° |
| 2026-05-07 11:21 | 54.47114 | 4.34973 | 34120 ft | 444 kts | 208° |
| 2026-05-07 11:21 | 54.41698 | 4.29878 | 34121 ft | 444 kts | 208° |
| 2026-05-07 11:22 | 54.36292 | 4.24816 | 34119 ft | 446 kts | 208° |
| 2026-05-07 11:22 | 54.30857 | 4.19737 | 34120 ft | 445 kts | 208° |
| 2026-05-07 11:23 | 54.25422 | 4.14664 | 34120 ft | 445 kts | 208° |
| 2026-05-07 11:23 | 54.19982 | 4.09616 | 34121 ft | 445 kts | 208° |
| 2026-05-07 11:24 | 54.14543 | 4.04568 | 34128 ft | 447 kts | 207° |
| 2026-05-07 11:24 | 54.09075 | 3.99510 | 34129 ft | 447 kts | 207° |
| 2026-05-07 11:25 | 54.03599 | 3.94467 | 34127 ft | 447 kts | 207° |
| 2026-05-07 11:25 | 53.98121 | 3.89442 | 34130 ft | 447 kts | 207° |
| 2026-05-07 11:26 | 53.92646 | 3.84435 | 34138 ft | 447 kts | 207° |
| 2026-05-07 11:26 | 53.88047 | 3.80231 | 34127 ft | 448 kts | 207° |
| 2026-05-07 11:27 | 53.82594 | 3.75271 | 34123 ft | 448 kts | 207° |
| 2026-05-07 11:27 | 53.77101 | 3.70282 | 34128 ft | 448 kts | 207° |
| 2026-05-07 11:28 | 53.71571 | 3.65279 | 34129 ft | 448 kts | 207° |
| 2026-05-07 11:28 | 53.66113 | 3.60351 | 34127 ft | 447 kts | 206° |
| 2026-05-07 11:29 | 53.60624 | 3.55414 | 34129 ft | 447 kts | 206° |
| 2026-05-07 11:29 | 53.55133 | 3.50484 | 34124 ft | 447 kts | 206° |
| 2026-05-07 11:30 | 53.49639 | 3.45577 | 34124 ft | 447 kts | 206° |
| 2026-05-07 11:30 | 53.44139 | 3.40667 | 34126 ft | 447 kts | 206° |
| 2026-05-07 11:31 | 53.38645 | 3.35779 | 34128 ft | 447 kts | 206° |
| 2026-05-07 11:31 | 53.33145 | 3.30907 | 34123 ft | 447 kts | 206° |
| 2026-05-07 11:32 | 53.24894 | 3.23625 | 34124 ft | 447 kts | 206° |
| 2026-05-07 11:33 | 53.19389 | 3.18780 | 34124 ft | 447 kts | 206° |
| 2026-05-07 11:33 | 53.13882 | 3.13945 | 34126 ft | 448 kts | 206° |
| 2026-05-07 11:34 | 53.08371 | 3.09124 | 34113 ft | 448 kts | 206° |
| 2026-05-07 11:34 | 53.02852 | 3.04316 | 34124 ft | 448 kts | 206° |
| 2026-05-07 11:35 | 52.97346 | 2.99520 | 34122 ft | 447 kts | 206° |
| 2026-05-07 11:35 | 52.91842 | 2.94746 | 34131 ft | 446 kts | 206° |
| 2026-05-07 11:36 | 52.86341 | 2.89989 | 34126 ft | 446 kts | 206° |
| 2026-05-07 11:36 | 52.80845 | 2.85252 | 34123 ft | 445 kts | 206° |
| 2026-05-07 11:37 | 52.75345 | 2.80530 | 34123 ft | 445 kts | 206° |
| 2026-05-07 11:37 | 52.69848 | 2.75825 | 34121 ft | 444 kts | 206° |
| 2026-05-07 11:38 | 52.64379 | 2.71134 | 34121 ft | 443 kts | 206° |
| 2026-05-07 11:38 | 52.58903 | 2.66476 | 34116 ft | 443 kts | 206° |
| 2026-05-07 11:39 | 52.53423 | 2.61832 | 34118 ft | 443 kts | 206° |
| 2026-05-07 11:39 | 52.47946 | 2.57187 | 34116 ft | 441 kts | 206° |
| 2026-05-07 11:39 | 52.45238 | 2.54934 | 33836 ft | 435 kts | 205° |
| 2026-05-07 11:40 | 52.42532 | 2.52743 | 33573 ft | 433 kts | 205° |
| 2026-05-07 11:40 | 52.39830 | 2.50567 | 33301 ft | 432 kts | 205° |
| 2026-05-07 11:40 | 52.37142 | 2.48395 | 33020 ft | 430 kts | 205° |
| 2026-05-07 11:40 | 52.34472 | 2.46234 | 32743 ft | 428 kts | 205° |
| 2026-05-07 11:41 | 52.31808 | 2.44078 | 32475 ft | 427 kts | 205° |
| 2026-05-07 11:41 | 52.29152 | 2.41933 | 32209 ft | 425 kts | 205° |
| 2026-05-07 11:41 | 52.26507 | 2.39798 | 31948 ft | 423 kts | 205° |
| 2026-05-07 11:41 | 52.23873 | 2.37674 | 31692 ft | 419 kts | 205° |
| 2026-05-07 11:42 | 52.21268 | 2.35578 | 31429 ft | 416 kts | 205° |
| 2026-05-07 11:42 | 52.18676 | 2.33495 | 31173 ft | 415 kts | 205° |
| 2026-05-07 11:42 | 52.16098 | 2.31424 | 30920 ft | 413 kts | 205° |
| 2026-05-07 11:42 | 52.13526 | 2.29357 | 30670 ft | 411 kts | 206° |
| 2026-05-07 11:43 | 52.11051 | 2.27034 | 30419 ft | 411 kts | 214° |
| 2026-05-07 11:43 | 52.08882 | 2.24022 | 30167 ft | 410 kts | 225° |
| 2026-05-07 11:43 | 52.06980 | 2.20575 | 29898 ft | 409 kts | 229° |
| 2026-05-07 11:43 | 52.05136 | 2.17068 | 29605 ft | 407 kts | 229° |
| 2026-05-07 11:44 | 52.03300 | 2.13589 | 29313 ft | 405 kts | 229° |
| 2026-05-07 11:44 | 52.01470 | 2.10150 | 29030 ft | 399 kts | 229° |
| 2026-05-07 11:44 | 51.99654 | 2.06771 | 28748 ft | 395 kts | 228° |
| 2026-05-07 11:44 | 51.97875 | 2.03477 | 28466 ft | 392 kts | 228° |
| 2026-05-07 11:45 | 51.96055 | 2.00121 | 28178 ft | 390 kts | 228° |
| 2026-05-07 11:45 | 51.94289 | 1.96874 | 27915 ft | 389 kts | 228° |
| 2026-05-07 11:45 | 51.92509 | 1.93602 | 27642 ft | 387 kts | 228° |
| 2026-05-07 11:45 | 51.90729 | 1.90334 | 27381 ft | 386 kts | 228° |
| 2026-05-07 11:46 | 51.88959 | 1.87088 | 27121 ft | 384 kts | 228° |
| 2026-05-07 11:46 | 51.87191 | 1.83856 | 26856 ft | 382 kts | 228° |
| 2026-05-07 11:46 | 51.85437 | 1.80646 | 26596 ft | 379 kts | 228° |
| 2026-05-07 11:46 | 51.83692 | 1.77457 | 26339 ft | 378 kts | 228° |
| 2026-05-07 11:47 | 51.81949 | 1.74280 | 26079 ft | 377 kts | 228° |
| 2026-05-07 11:47 | 51.80220 | 1.71126 | 25826 ft | 374 kts | 228° |
| 2026-05-07 11:47 | 51.78497 | 1.67993 | 25575 ft | 371 kts | 228° |
| 2026-05-07 11:47 | 51.76791 | 1.64891 | 25324 ft | 369 kts | 229° |
| 2026-05-07 11:48 | 51.75316 | 1.61524 | 25110 ft | 368 kts | 243° |
| 2026-05-07 11:48 | 51.74472 | 1.57670 | 24846 ft | 362 kts | 258° |
| 2026-05-07 11:48 | 51.74154 | 1.53646 | 24303 ft | 362 kts | 264° |
| 2026-05-07 11:48 | 51.73936 | 1.49603 | 23710 ft | 363 kts | 264° |
| 2026-05-07 11:49 | 51.73717 | 1.45545 | 23033 ft | 363 kts | 264° |
| 2026-05-07 11:49 | 51.73477 | 1.41488 | 22415 ft | 362 kts | 263° |
| 2026-05-07 11:49 | 51.73223 | 1.37462 | 21844 ft | 360 kts | 263° |
| 2026-05-07 11:49 | 51.72967 | 1.33460 | 21291 ft | 358 kts | 263° |
| 2026-05-07 11:50 | 51.72708 | 1.29484 | 20755 ft | 355 kts | 263° |
| 2026-05-07 11:50 | 51.72447 | 1.25538 | 20230 ft | 353 kts | 263° |
| 2026-05-07 11:50 | 51.72185 | 1.21620 | 19710 ft | 351 kts | 263° |
| 2026-05-07 11:50 | 51.71921 | 1.17731 | 19197 ft | 349 kts | 263° |
| 2026-05-07 11:51 | 51.71660 | 1.13841 | 18683 ft | 347 kts | 263° |
| 2026-05-07 11:51 | 51.71395 | 1.09981 | 18142 ft | 346 kts | 263° |
| 2026-05-07 11:51 | 51.71138 | 1.06136 | 17580 ft | 344 kts | 263° |
| 2026-05-07 11:51 | 51.70561 | 1.02426 | 17030 ft | 341 kts | 247° |
| 2026-05-07 11:52 | 51.69457 | 0.99053 | 16630 ft | 340 kts | 239° |
| 2026-05-07 11:52 | 51.68265 | 0.95789 | 16317 ft | 334 kts | 244° |
| 2026-05-07 11:52 | 51.67594 | 0.92264 | 16038 ft | 326 kts | 260° |
| 2026-05-07 11:52 | 51.67395 | 0.88646 | 15550 ft | 326 kts | 266° |
| 2026-05-07 11:53 | 51.67291 | 0.84961 | 14743 ft | 332 kts | 266° |
| 2026-05-07 11:53 | 51.67175 | 0.81227 | 13906 ft | 336 kts | 266° |
| 2026-05-07 11:53 | 51.67051 | 0.77460 | 13146 ft | 336 kts | 266° |
| 2026-05-07 11:53 | 51.66918 | 0.73732 | 12473 ft | 332 kts | 266° |
| 2026-05-07 11:54 | 51.66783 | 0.70033 | 11782 ft | 330 kts | 266° |
| 2026-05-07 11:54 | 51.66648 | 0.66356 | 11109 ft | 328 kts | 266° |
| 2026-05-07 11:54 | 51.66504 | 0.62714 | 10480 ft | 323 kts | 266° |
| 2026-05-07 11:54 | 51.66361 | 0.59166 | 10257 ft | 313 kts | 266° |
| 2026-05-07 11:55 | 51.66231 | 0.55733 | 10097 ft | 301 kts | 266° |
| 2026-05-07 11:55 | 51.66103 | 0.52425 | 9927 ft | 291 kts | 266° |
| 2026-05-07 11:55 | 51.65973 | 0.49184 | 9520 ft | 289 kts | 266° |
| 2026-05-07 11:55 | 51.65845 | 0.45963 | 9094 ft | 288 kts | 266° |
| 2026-05-07 11:56 | 51.65720 | 0.42764 | 8714 ft | 285 kts | 265° |
| 2026-05-07 11:56 | 51.65591 | 0.39596 | 8362 ft | 282 kts | 265° |
| 2026-05-07 11:56 | 51.65467 | 0.36473 | 8033 ft | 278 kts | 265° |
| 2026-05-07 11:56 | 51.65341 | 0.33383 | 7732 ft | 277 kts | 264° |
| 2026-05-07 11:57 | 51.65216 | 0.30284 | 7431 ft | 277 kts | 265° |
| 2026-05-07 11:57 | 51.65087 | 0.27213 | 7181 ft | 272 kts | 264° |
| 2026-05-07 11:57 | 51.64961 | 0.24215 | 7059 ft | 262 kts | 264° |
| 2026-05-07 11:57 | 51.64845 | 0.21375 | 7041 ft | 246 kts | 265° |
| 2026-05-07 11:58 | 51.64734 | 0.18674 | 7050 ft | 240 kts | 264° |
| 2026-05-07 11:58 | 51.64624 | 0.15993 | 7071 ft | 240 kts | 264° |
| 2026-05-07 11:58 | 51.64501 | 0.13315 | 7088 ft | 240 kts | 263° |
| 2026-05-07 11:58 | 51.64357 | 0.10638 | 7085 ft | 240 kts | 263° |
| 2026-05-07 11:59 | 51.64209 | 0.07961 | 7091 ft | 240 kts | 263° |
| 2026-05-07 11:59 | 51.64105 | 0.05308 | 7095 ft | 241 kts | 265° |
| 2026-05-07 11:59 | 51.64042 | 0.02617 | 7086 ft | 240 kts | 266° |
| 2026-05-07 11:59 | 51.63973 | -0.00069 | 7089 ft | 240 kts | 266° |
| 2026-05-07 12:00 | 51.63893 | -0.02778 | 7084 ft | 236 kts | 266° |
| 2026-05-07 12:00 | 51.63795 | -0.05364 | 7082 ft | 235 kts | 266° |
| 2026-05-07 12:00 | 51.63689 | -0.07994 | 7085 ft | 235 kts | 266° |
| 2026-05-07 12:00 | 51.63582 | -0.10622 | 7086 ft | 235 kts | 266° |
| 2026-05-07 12:01 | 51.63476 | -0.13244 | 7095 ft | 235 kts | 266° |
| 2026-05-07 12:01 | 51.63369 | -0.15868 | 7086 ft | 235 kts | 266° |
| 2026-05-07 12:01 | 51.63260 | -0.18494 | 7092 ft | 235 kts | 266° |
| 2026-05-07 12:01 | 51.63150 | -0.21118 | 7087 ft | 235 kts | 266° |
| 2026-05-07 12:02 | 51.63040 | -0.23741 | 7090 ft | 235 kts | 266° |
| 2026-05-07 12:02 | 51.62930 | -0.26368 | 7088 ft | 235 kts | 266° |
| 2026-05-07 12:02 | 51.62820 | -0.28993 | 7077 ft | 235 kts | 266° |
| 2026-05-07 12:02 | 51.62709 | -0.31613 | 7086 ft | 235 kts | 266° |
| 2026-05-07 12:03 | 51.62596 | -0.34238 | 7087 ft | 235 kts | 266° |
| 2026-05-07 12:03 | 51.62486 | -0.36861 | 7083 ft | 235 kts | 266° |
| 2026-05-07 12:03 | 51.62375 | -0.39488 | 7077 ft | 235 kts | 266° |
| 2026-05-07 12:03 | 51.62265 | -0.42115 | 7085 ft | 235 kts | 266° |
| 2026-05-07 12:04 | 51.62155 | -0.44739 | 7078 ft | 235 kts | 266° |
| 2026-05-07 12:04 | 51.62045 | -0.47359 | 7083 ft | 233 kts | 266° |
| 2026-05-07 12:04 | 51.61937 | -0.49933 | 6798 ft | 230 kts | 266° |
| 2026-05-07 12:04 | 51.61827 | -0.52496 | 6447 ft | 230 kts | 266° |
| 2026-05-07 12:05 | 51.61716 | -0.55056 | 6101 ft | 230 kts | 265° |
| 2026-05-07 12:05 | 51.61606 | -0.57621 | 5798 ft | 230 kts | 265° |
| 2026-05-07 12:05 | 51.61498 | -0.60179 | 5521 ft | 229 kts | 265° |
| 2026-05-07 12:05 | 51.61393 | -0.62729 | 5261 ft | 228 kts | 265° |
| 2026-05-07 12:06 | 51.61151 | -0.65232 | 5002 ft | 227 kts | 247° |
| 2026-05-07 12:06 | 51.60252 | -0.67285 | 4742 ft | 226 kts | 224° |
| 2026-05-07 12:06 | 51.59082 | -0.68972 | 4478 ft | 226 kts | 221° |
| 2026-05-07 12:06 | 51.57894 | -0.70610 | 4230 ft | 225 kts | 220° |
| 2026-05-07 12:07 | 51.56709 | -0.72241 | 4000 ft | 224 kts | 221° |
| 2026-05-07 12:07 | 51.55511 | -0.73863 | 3961 ft | 226 kts | 220° |
| 2026-05-07 12:07 | 51.54307 | -0.75481 | 3966 ft | 226 kts | 219° |
| 2026-05-07 12:07 | 51.52903 | -0.76569 | 3939 ft | 227 kts | 191° |
| 2026-05-07 12:08 | 51.51324 | -0.76746 | 3763 ft | 228 kts | 181° |
| 2026-05-07 12:08 | 51.49765 | -0.76401 | 3521 ft | 228 kts | 158° |
| 2026-05-07 12:08 | 51.48513 | -0.74884 | 3274 ft | 228 kts | 128° |
| 2026-05-07 12:08 | 51.47815 | -0.72668 | 3038 ft | 220 kts | 105° |
| 2026-05-07 12:09 | 51.47607 | -0.70281 | 2795 ft | 211 kts | 92° |
| 2026-05-07 12:09 | 51.47686 | -0.67993 | 2581 ft | 202 kts | 89° |
| 2026-05-07 12:09 | 51.47693 | -0.65767 | 2300 ft | 197 kts | 89° |
| 2026-05-07 12:09 | 51.47699 | -0.63589 | 2018 ft | 194 kts | 89° |
| 2026-05-07 12:10 | 51.47701 | -0.62182 | 1866 ft | 186 kts | 90° |
| 2026-05-07 12:10 | 51.47709 | -0.60172 | 1609 ft | 174 kts | 90° |
| 2026-05-07 12:10 | 51.47717 | -0.58368 | 1366 ft | 150 kts | 90° |
| 2026-05-07 12:10 | 51.47723 | -0.56718 | 1134 ft | 146 kts | 90° |
| 2026-05-07 12:11 | 51.47729 | -0.55093 | 935 ft | 145 kts | 90° |
| 2026-05-07 12:11 | 51.47734 | -0.53483 | 740 ft | 144 kts | 90° |
| 2026-05-07 12:11 | 51.47740 | -0.51880 | 543 ft | 143 kts | 91° |
| 2026-05-07 12:11 | 51.47743 | -0.50285 | 373 ft | 143 kts | 91° |
| 2026-05-07 12:12 | 51.47757 | -0.48688 | 159 ft | 144 kts | 90° |
| 2026-05-07 12:12 | 51.47757 | -0.47146 | 93 ft | 123 kts | 91° |
| 2026-05-07 12:12 | 51.47759 | -0.46114 | 93 ft | 65 kts | 90° |
| 2026-05-07 12:12 | 51.47770 | -0.45532 | 92 ft | 21 kts | 89° |
| 2026-05-07 12:13 | 51.47764 | -0.45286 | 92 ft | 23 kts | 107° |
| 2026-05-07 12:13 | 51.47749 | -0.45235 | 94 ft | 2 kts | 129° |
| 2026-05-07 12:13 | 51.47726 | -0.45195 | 96 ft | 7 kts | 143° |
| 2026-05-07 12:13 | 51.47666 | -0.45172 | 95 ft | 10 kts | 178° |
| 2026-05-07 12:14 | 51.47600 | -0.45217 | 92 ft | 12 kts | 244° |
| 2026-05-07 12:14 | 51.47595 | -0.45365 | 95 ft | 14 kts | 270° |
| 2026-05-07 12:14 | 51.47596 | -0.45536 | 95 ft | 16 kts | 270° |
| 2026-05-07 12:14 | 51.47594 | -0.45732 | 91 ft | 18 kts | 269° |
| 2026-05-07 12:15 | 51.47593 | -0.45943 | 91 ft | 19 kts | 270° |
| 2026-05-07 12:15 | 51.47591 | -0.46164 | 91 ft | 20 kts | 268° |
| 2026-05-07 12:15 | 51.47594 | -0.46394 | 92 ft | 21 kts | 269° |
| 2026-05-07 12:15 | 51.47592 | -0.46633 | 92 ft | 22 kts | 269° |
| 2026-05-07 12:16 | 51.47586 | -0.46881 | 92 ft | 23 kts | 265° |
| 2026-05-07 12:16 | 51.47582 | -0.47139 | 95 ft | 24 kts | 269° |
| 2026-05-07 12:16 | 51.47581 | -0.47406 | 95 ft | 24 kts | 273° |
| 2026-05-07 12:16 | 51.47582 | -0.47681 | 95 ft | 25 kts | 269° |
| 2026-05-07 12:17 | 51.47578 | -0.47966 | 95 ft | 26 kts | 270° |
| 2026-05-07 12:17 | 51.47579 | -0.48255 | 95 ft | 25 kts | 270° |
| 2026-05-07 12:17 | 51.47577 | -0.48394 | 92 ft | 12 kts | 267° |
| 2026-05-07 12:17 | 51.47522 | -0.48478 | 92 ft | 13 kts | 182° |
| 2026-05-07 12:18 | 51.47427 | -0.48475 | 91 ft | 14 kts | 179° |
| 2026-05-07 12:18 | 51.47326 | -0.48473 | 91 ft | 15 kts | 179° |
| 2026-05-07 12:18 | 51.47216 | -0.48471 | 93 ft | 16 kts | 181° |
| 2026-05-07 12:18 | 51.47100 | -0.48472 | 91 ft | 17 kts | 179° |
| 2026-05-07 12:19 | 51.46983 | -0.48470 | 95 ft | 3 kts | 179° |
| 2026-05-07 12:19 | 51.46959 | -0.48469 | 93 ft | 4 kts | 179° |
| 2026-05-07 12:19 | 51.46926 | -0.48468 | 91 ft | 5 kts | 178° |
| 2026-05-07 12:19 | 51.46888 | -0.48484 | 92 ft | 6 kts | 223° |
| 2026-05-07 12:20 | 51.46879 | -0.48558 | 91 ft | 8 kts | 290° |
| 2026-05-07 12:20 | 51.46896 | -0.48573 | 94 ft | 1 kts | 359° |
| 2026-05-07 12:20 | 51.46906 | -0.48573 | 91 ft | 2 kts | 1° |
| 2026-05-07 12:20 | 51.46922 | -0.48572 | 91 ft | 0 kts | 0° |
| 2026-05-07 12:21 | 51.46923 | -0.48572 | 91 ft | 1 kts | 0° |
| 2026-05-07 12:21 | 51.46927 | -0.48572 | 91 ft | 0 kts | 359° |